Time;durP1;ratioP1;P1;durP2;ratioP2;P2;SDS_P1;SDS_P2;PMS_P1;PMS_P2;Temp;Humidity;BMP_temperature;BMP_pressure;BME280_temperature;BME280_humidity;BME280_pressure;Samples;Min_cycle;Max_cycle;Signal;HPM_P1;HPM_P2
2022/06/03 00:02:24;;;;;;;6.15;5.75;;;;;;;;;;5197481;28;20499;-77
2022/06/03 00:05:09;;;;;;;6.05;5.72;;;;;;;;;;5214958;28;20395;-77
2022/06/03 00:07:49;;;;;;;6.90;6.32;;;;;;;;;;5215724;28;20018;-81
2022/06/03 00:10:25;;;;;;;6.07;5.68;;;;;;;;;;5198200;28;20021;-79
2022/06/03 00:13:14;;;;;;;5.70;5.40;;;;;;;;;;5215802;28;20446;-81
2022/06/03 00:16:03;;;;;;;5.47;5.18;;;;;;;;;;5196327;28;20025;-81
2022/06/03 00:18:42;;;;;;;5.20;4.78;;;;;;;;;;5243019;22;20067;-80
2022/06/03 00:21:15;;;;;;;6.03;5.72;;;;;;;;;;5188696;28;20013;-81
2022/06/03 00:23:53;;;;;;;6.53;6.13;;;;;;;;;;5188781;28;20041;-79
2022/06/03 00:26:23;;;;;;;6.40;6.07;;;;;;;;;;5210062;28;20025;-80
2022/06/03 00:29:05;;;;;;;7.13;6.47;;;;;;;;;;5209868;28;20025;-79
2022/06/03 00:34:43;;;;;;;6.22;5.90;;;;;;;;;;5209843;28;20036;-80
2022/06/03 00:37:13;;;;;;;6.50;6.20;;;;;;;;;;5209123;28;20018;-81
2022/06/03 00:40:02;;;;;;;6.80;6.30;;;;;;;;;;5191369;28;20256;-80
2022/06/03 00:42:33;;;;;;;6.15;5.80;;;;;;;;;;5208964;28;20021;-80
2022/06/03 00:45:22;;;;;;;7.57;7.07;;;;;;;;;;5208993;28;20032;-80
2022/06/03 00:47:58;;;;;;;5.78;5.35;;;;;;;;;;5189933;28;20067;-80
2022/06/03 00:50:31;;;;;;;5.43;5.13;;;;;;;;;;5209651;28;20399;-80
2022/06/03 00:53:07;;;;;;;10.82;7.30;;;;;;;;;;5192778;28;20025;-80
2022/06/03 00:55:49;;;;;;;6.32;5.82;;;;;;;;;;5192686;28;20018;-78
2022/06/03 00:58:31;;;;;;;6.57;5.97;;;;;;;;;;5209970;28;20026;-79
2022/06/03 01:01:07;;;;;;;5.90;5.53;;;;;;;;;;5192458;28;20021;-80
2022/06/03 01:03:53;;;;;;;7.82;7.20;;;;;;;;;;5208481;28;20071;-80
2022/06/03 01:06:42;;;;;;;6.97;6.43;;;;;;;;;;5208848;28;20025;-80
2022/06/03 01:09:28;;;;;;;7.25;6.82;;;;;;;;;;5209319;28;20023;-80
2022/06/03 01:12:21;;;;;;;7.72;7.22;;;;;;;;;;5208596;28;20574;-78
2022/06/03 01:14:51;;;;;;;6.68;6.30;;;;;;;;;;5208326;28;20104;-80
2022/06/03 01:17:33;;;;;;;8.70;8.10;;;;;;;;;;5208900;28;20041;-80
2022/06/03 01:20:06;;;;;;;7.32;6.28;;;;;;;;;;5208846;28;20128;-81
2022/06/03 01:22:54;;;;;;;7.07;6.55;;;;;;;;;;5207819;28;20026;-80
2022/06/03 01:25:31;;;;;;;6.82;6.32;;;;;;;;;;5192228;28;20376;-79
2022/06/03 01:31:41;;;;;;;7.07;6.57;;;;;;;;;;5211847;28;20035;-84
2022/06/03 01:34:31;;;;;;;7.50;7.10;;;;;;;;;;5158729;28;20025;-79
2022/06/03 01:37:21;;;;;;;8.02;7.60;;;;;;;;;;5212822;28;20028;-80
2022/06/03 01:40:17;;;;;;;7.68;7.18;;;;;;;;;;5212288;28;20029;-80
2022/06/03 01:42:47;;;;;;;7.88;7.43;;;;;;;;;;5213615;28;20405;-80
2022/06/03 01:45:56;;;;;;;8.60;7.83;;;;;;;;;;5214674;28;20017;-79
2022/06/03 01:48:29;;;;;;;7.93;7.53;;;;;;;;;;5140304;28;20281;-80
2022/06/03 01:51:03;;;;;;;7.75;7.25;;;;;;;;;;5120626;29;20083;-81
2022/06/03 01:53:42;;;;;;;9.88;9.07;;;;;;;;;;5196204;28;20083;-81
2022/06/03 01:56:13;;;;;;;8.13;7.43;;;;;;;;;;5197312;28;20031;-79
2022/06/03 01:58:44;;;;;;;10.13;9.52;;;;;;;;;;5214340;28;20076;-81
2022/06/03 02:01:14;;;;;;;8.68;8.18;;;;;;;;;;5213639;28;20033;-82
2022/06/03 02:03:44;;;;;;;8.77;7.70;;;;;;;;;;5213740;28;20383;-81
2022/06/03 02:06:34;;;;;;;8.57;8.07;;;;;;;;;;5214785;28;20264;-81
2022/06/03 02:09:16;;;;;;;12.45;7.60;;;;;;;;;;5196492;28;20120;-81
2022/06/03 02:12:05;;;;;;;8.57;8.07;;;;;;;;;;5213169;28;20064;-81
2022/06/03 02:14:41;;;;;;;7.20;6.70;;;;;;;;;;5213420;28;20022;-80
2022/06/03 02:17:11;;;;;;;11.30;9.40;;;;;;;;;;5195677;28;20029;-80
2022/06/03 02:20:00;;;;;;;7.90;7.37;;;;;;;;;;5212869;28;20075;-80
2022/06/03 02:22:30;;;;;;;9.85;9.15;;;;;;;;;;5205609;28;20279;-80
2022/06/03 02:25:06;;;;;;;9.27;8.63;;;;;;;;;;5217512;28;20021;-80
2022/06/03 02:27:40;;;;;;;9.63;8.82;;;;;;;;;;5213641;28;20028;-81
2022/06/03 02:30:29;;;;;;;8.85;8.15;;;;;;;;;;5212602;28;20108;-81
2022/06/03 02:33:08;;;;;;;10.50;9.65;;;;;;;;;;5212849;28;20059;-81
2022/06/03 02:35:52;;;;;;;10.95;10.13;;;;;;;;;;5212389;28;20072;-81
2022/06/03 02:38:25;;;;;;;8.73;8.23;;;;;;;;;;5213516;28;20088;-80
2022/06/03 02:41:14;;;;;;;9.65;8.82;;;;;;;;;;5211815;28;20025;-81
2022/06/03 02:52:18;;;;;;;12.27;9.82;;;;;;;;;;6229974;22;19926;-78
2022/06/03 02:54:48;;;;;;;9.38;8.75;;;;;;;;;;5228892;28;20041;-77
2022/06/03 02:57:38;;;;;;;11.20;10.38;;;;;;;;;;5242425;28;20028;-77
2022/06/03 03:00:19;;;;;;;9.80;9.00;;;;;;;;;;5249361;28;20021;-80
2022/06/03 03:03:14;;;;;;;10.10;9.45;;;;;;;;;;5235546;28;20017;-81
2022/06/03 03:05:50;;;;;;;9.82;9.05;;;;;;;;;;5233569;28;20021;-80
2022/06/03 03:08:39;;;;;;;13.05;10.40;;;;;;;;;;5233162;28;20017;-80
2022/06/03 03:11:28;;;;;;;11.05;10.35;;;;;;;;;;5232535;28;20017;-81
2022/06/03 03:14:17;;;;;;;10.77;9.70;;;;;;;;;;5233192;28;20120;-80
2022/06/03 03:16:50;;;;;;;11.43;10.70;;;;;;;;;;5233010;28;20025;-81
2022/06/03 03:19:20;;;;;;;10.68;9.93;;;;;;;;;;5231738;28;20104;-80
2022/06/03 03:21:58;;;;;;;10.73;9.90;;;;;;;;;;5228826;28;20105;-77
2022/06/03 03:24:47;;;;;;;10.98;9.82;;;;;;;;;;5228362;28;20017;-80
2022/06/03 03:27:20;;;;;;;12.57;11.43;;;;;;;;;;5230469;28;20063;-80
2022/06/03 03:29:50;;;;;;;11.68;10.48;;;;;;;;;;5230115;28;20024;-79
2022/06/03 03:32:23;;;;;;;11.32;10.52;;;;;;;;;;5211987;28;20024;-79
2022/06/03 03:35:20;;;;;;;12.07;11.27;;;;;;;;;;5229332;28;20605;-80
2022/06/03 03:38:05;;;;;;;10.65;9.63;;;;;;;;;;5228471;28;20021;-80
2022/06/03 03:40:50;;;;;;;12.95;11.68;;;;;;;;;;5228927;28;20021;-79
2022/06/03 03:43:26;;;;;;;12.82;11.63;;;;;;;;;;5228938;28;20087;-77
2022/06/03 03:46:15;;;;;;;10.98;10.15;;;;;;;;;;5248653;28;20021;-79
2022/06/03 03:48:51;;;;;;;11.68;10.80;;;;;;;;;;5248951;28;20524;-82
2022/06/03 03:51:26;;;;;;;11.38;10.52;;;;;;;;;;5230011;28;20028;-80
2022/06/03 03:54:14;;;;;;;10.73;10.02;;;;;;;;;;5248350;28;20016;-79
2022/06/03 03:57:01;;;;;;;12.45;11.25;;;;;;;;;;5245696;28;20530;-79
2022/06/03 03:59:43;;;;;;;14.30;13.05;;;;;;;;;;5246347;28;20008;-80
2022/06/03 04:02:38;;;;;;;11.93;11.13;;;;;;;;;;5232871;28;20023;-80
2022/06/03 04:05:38;;;;;;;12.68;11.57;;;;;;;;;;5232418;28;20040;-80
2022/06/03 04:08:20;;;;;;;13.75;12.45;;;;;;;;;;5161481;28;20029;-80
2022/06/03 04:11:03;;;;;;;15.77;12.63;;;;;;;;;;5250621;28;20450;-80
2022/06/03 04:13:56;;;;;;;14.57;13.40;;;;;;;;;;5250049;28;20516;-80
2022/06/03 04:16:39;;;;;;;13.00;12.00;;;;;;;;;;5236679;28;20032;-79
2022/06/03 04:19:21;;;;;;;14.85;13.48;;;;;;;;;;5249839;28;20386;-80
2022/06/03 04:21:51;;;;;;;13.95;12.73;;;;;;;;;;5233446;28;20388;-81
2022/06/03 04:24:55;;;;;;;11.67;10.80;;;;;;;;;;5251777;28;20103;-81
2022/06/03 04:27:34;;;;;;;10.50;9.65;;;;;;;;;;5246521;28;20267;-80
2022/06/03 04:30:23;;;;;;;20.48;11.85;;;;;;;;;;5230629;28;20024;-83
2022/06/03 04:33:12;;;;;;;12.73;11.63;;;;;;;;;;5231324;28;20054;-83
2022/06/03 04:36:01;;;;;;;10.18;9.50;;;;;;;;;;5231609;28;20066;-82
2022/06/03 04:38:34;;;;;;;9.75;9.05;;;;;;;;;;5213812;28;20029;-82
2022/06/03 04:41:23;;;;;;;10.38;9.68;;;;;;;;;;5231664;28;20073;-81
2022/06/03 04:43:59;;;;;;;10.15;9.40;;;;;;;;;;5213734;28;20025;-81
2022/06/03 04:46:48;;;;;;;9.85;9.25;;;;;;;;;;5231102;28;20025;-82
2022/06/03 04:51:14;;;;;;;11.35;10.32;;;;;;;13.34;100.00;101707.44;5306669;27;20133;-61
2022/06/03 04:54:22;;;;;;;12.73;9.98;;;;;;;13.31;100.00;101707.94;5266950;28;20051;-61
2022/06/03 04:57:20;;;;;;;11.60;10.77;;;;;;;13.15;100.00;101712.34;5246799;28;20711;-61
2022/06/03 05:00:16;;;;;;;9.65;9.02;;;;;;;13.03;100.00;101709.72;5246099;28;20060;-61
2022/06/03 05:03:24;;;;;;;12.70;11.00;;;;;;;12.87;100.00;101699.78;5174694;28;188123;-61
2022/06/03 05:06:13;;;;;;;10.40;9.70;;;;;;;12.82;100.00;101705.94;5197098;28;20517;-61
2022/06/03 05:09:17;;;;;;;8.70;7.70;;;;;;;12.75;100.00;101697.16;5196802;28;20103;-61
2022/06/03 05:12:27;;;;;;;10.50;9.80;;;;;;;12.70;100.00;101702.53;5196965;28;20072;-61
2022/06/03 05:15:19;;;;;;;11.02;10.10;;;;;;;12.64;100.00;101695.41;5197351;28;20421;-61
2022/06/03 05:17:52;;;;;;;11.10;10.38;;;;;;;12.66;100.00;101701.38;5200200;28;20037;-61
2022/06/03 05:20:35;;;;;;;11.90;10.63;;;;;;;12.69;100.00;101691.94;5200697;28;20029;-61
2022/06/03 05:23:18;;;;;;;9.88;9.32;;;;;;;12.64;100.00;101689.97;5198727;28;20152;-61
2022/06/03 05:26:07;;;;;;;11.63;10.85;;;;;;;12.66;100.00;101695.16;5200284;28;20030;-61
2022/06/03 05:29:05;;;;;;;11.17;10.37;;;;;;;12.73;100.00;101695.75;5200240;28;20215;-61
2022/06/03 05:32:32;;;;;;;11.38;10.23;;;;;;;12.77;100.00;101702.34;5199885;28;20287;-61
2022/06/03 05:35:50;;;;;;;10.77;10.07;;;;;;;12.81;100.00;101707.00;5199649;28;20044;-61
2022/06/03 05:38:36;;;;;;;10.75;10.05;;;;;;;12.87;100.00;101694.34;5133162;28;20523;-61
2022/06/03 05:45:08;;;;;;;18.42;11.10;;;;;;;12.97;100.00;101680.13;5201112;28;20072;-61
2022/06/03 05:47:47;;;;;;;11.18;10.38;;;;;;;13.01;100.00;101671.19;5201299;28;20046;-62
2022/06/03 05:50:42;;;;;;;11.65;10.63;;;;;;;13.15;100.00;101690.63;5199973;28;20499;-61
2022/06/03 05:53:50;;;;;;;11.18;10.57;;;;;;;13.25;100.00;101681.84;5199960;28;20497;-61
2022/06/03 05:56:23;;;;;;;11.38;10.68;;;;;;;13.34;100.00;101688.44;5201023;28;20075;-61
2022/06/03 05:59:21;;;;;;;13.40;9.82;;;;;;;13.43;100.00;101685.03;5201140;28;20515;-61
2022/06/03 06:02:17;;;;;;;10.15;9.35;;;;;;;13.56;100.00;101691.97;5187448;28;20021;-61
2022/06/03 06:04:56;;;;;;;11.20;10.40;;;;;;;13.71;100.00;101697.53;5186318;28;20075;-62
2022/06/03 06:07:50;;;;;;;11.02;10.25;;;;;;;13.86;100.00;101684.09;5186608;28;20026;-61
2022/06/03 06:11:03;;;;;;;9.30;8.60;;;;;;;14.11;100.00;101686.22;5186122;28;20034;-61
2022/06/03 06:13:55;;;;;;;8.10;7.60;;;;;;;14.48;100.00;101677.25;5185963;28;20033;-60
2022/06/03 06:16:40;;;;;;;8.35;7.75;;;;;;;14.88;100.00;101675.88;5186099;28;20104;-61
2022/06/03 06:19:19;;;;;;;9.65;8.95;;;;;;;15.02;100.00;101655.25;5208743;22;20333;-84
2022/06/03 06:22:19;;;;;;;11.00;9.95;;;;;;;15.30;100.00;101673.06;5209020;28;20121;-83
2022/06/03 06:24:58;;;;;;;8.95;8.35;;;;;;;15.59;100.00;101685.13;5207976;28;20033;-81
2022/06/03 06:27:54;;;;;;;9.63;9.02;;;;;;;15.80;100.00;101686.78;5208990;28;20407;-83
2022/06/03 06:30:36;;;;;;;14.10;10.35;;;;;;;16.16;100.00;101679.47;5212939;28;20021;-84
2022/06/03 06:33:47;;;;;;;8.80;8.30;;;;;;;16.54;100.00;101682.66;5212167;28;20033;-82
2022/06/03 06:36:51;;;;;;;13.63;8.38;;;;;;;16.87;100.00;101679.34;5212166;28;20395;-81
2022/06/03 06:39:53;;;;;;;8.93;8.23;;;;;;;17.04;100.00;101672.72;5214037;28;20064;-82
2022/06/03 06:42:46;;;;;;;8.90;7.72;;;;;;;17.03;100.00;101665.66;5212915;28;20175;-84
2022/06/03 06:45:46;;;;;;;9.57;8.65;;;;;;;17.21;100.00;101659.56;5214033;28;20028;-82
2022/06/03 06:48:42;;;;;;;8.68;8.07;;;;;;;17.44;100.00;101682.63;5213012;28;20040;-82
2022/06/03 06:51:51;;;;;;;15.27;7.57;;;;;;;17.34;100.00;101626.16;5211812;28;20033;-82
2022/06/03 06:54:48;;;;;;;8.75;7.75;;;;;;;17.96;100.00;101673.81;5205953;28;20110;-83
2022/06/03 06:57:25;;;;;;;11.95;7.65;;;;;;;18.15;100.00;101661.09;5209764;28;20323;-83
2022/06/03 07:00:11;;;;;;;7.57;6.97;;;;;;;18.54;100.00;101673.84;5208687;28;20018;-83
2022/06/03 07:02:50;;;;;;;7.03;6.60;;;;;;;18.62;100.00;101669.69;5211072;28;20071;-82
2022/06/03 07:05:39;;;;;;;7.05;6.63;;;;;;;18.88;100.00;101680.06;5212724;28;20029;-82
2022/06/03 07:08:13;;;;;;;8.48;7.80;;;;;;;18.83;100.00;101655.47;5215261;28;20052;-83
2022/06/03 07:10:50;;;;;;;20.15;9.30;;;;;;;19.05;100.00;101670.56;5211373;28;20518;-81
2022/06/03 07:13:27;;;;;;;8.20;7.07;;;;;;;19.03;100.00;101670.03;5218522;28;20031;-83
2022/06/03 07:16:09;;;;;;;7.20;6.60;;;;;;;19.11;100.00;101680.31;5216579;28;20040;-84
2022/06/03 07:22:04;;;;;;;11.82;6.28;;;;;;;19.26;100.00;101658.22;5210271;28;20033;-82
2022/06/03 07:25:07;;;;;;;13.48;6.35;;;;;;;19.14;100.00;101652.34;5207123;28;20029;-86
2022/06/03 07:27:55;;;;;;;8.68;6.07;;;;;;;19.01;100.00;101604.63;5218437;28;20055;-86
2022/06/03 07:30:51;;;;;;;6.35;5.82;;;;;;;19.37;100.00;101670.66;5208147;28;20032;-85
2022/06/03 07:33:30;;;;;;;6.80;6.30;;;;;;;19.60;100.00;101671.75;5208857;28;20040;-85
2022/06/03 07:36:13;;;;;;;6.35;5.35;;;;;;;19.79;100.00;101666.25;5208130;28;20056;-84
2022/06/03 07:38:55;;;;;;;6.90;6.43;;;;;;;19.62;100.00;101620.22;5208940;28;20036;-84
2022/06/03 07:41:42;;;;;;;10.93;6.72;;;;;;;20.10;100.00;101659.13;5210799;28;20021;-85
2022/06/03 07:44:21;;;;;;;6.40;6.03;;;;;;;20.02;100.00;101628.84;5189960;28;20388;-84
2022/06/03 07:47:00;;;;;;;7.93;7.23;;;;;;;20.04;100.00;101597.28;5191368;28;20030;-84
2022/06/03 07:49:35;;;;;;;8.50;7.82;;;;;;;20.23;100.00;101619.13;5191205;28;20117;-84
2022/06/03 07:52:10;;;;;;;8.88;5.78;;;;;;;20.62;100.00;101648.88;5192495;28;20042;-84
2022/06/03 07:54:50;;;;;;;6.88;6.47;;;;;;;20.51;100.00;101636.47;5190099;28;20022;-83
2022/06/03 07:57:26;;;;;;;6.63;6.13;;;;;;;20.64;100.00;101634.84;5190251;28;20026;-84
2022/06/03 08:00:00;;;;;;;9.02;6.68;;;;;;;20.80;100.00;101631.50;5192001;28;20480;-84
2022/06/03 08:02:30;;;;;;;6.40;5.90;;;;;;;21.06;100.00;101598.84;5190478;28;20447;-84
2022/06/03 08:05:16;;;;;;;6.53;6.03;;;;;;;21.34;99.56;101638.06;5190135;28;20124;-84
2022/06/03 08:10:59;;;;;;;4.50;4.30;;;;;;;21.89;97.32;101624.91;5191516;28;20064;-85
2022/06/03 08:13:41;;;;;;;8.82;4.57;;;;;;;22.07;95.19;101625.84;5190312;28;20025;-85
2022/06/03 08:16:18;;;;;;;4.78;4.47;;;;;;;22.15;96.67;101605.84;5190366;28;20057;-85
2022/06/03 08:18:49;;;;;;;8.25;6.15;;;;;;;22.54;92.39;101606.97;5188273;28;20087;-85
2022/06/03 08:21:26;;;;;;;6.18;5.40;;;;;;;22.40;91.42;101611.78;5190532;28;20029;-84
2022/06/03 08:23:59;;;;;;;5.85;5.35;;;;;;;22.39;91.38;101588.13;5188855;28;20030;-84
2022/06/03 08:26:31;;;;;;;5.78;5.40;;;;;;;22.58;89.77;101599.69;5187933;28;20029;-85
2022/06/03 08:29:06;;;;;;;4.78;4.38;;;;;;;22.19;90.89;101562.81;5188556;28;20030;-84
2022/06/03 08:31:37;;;;;;;4.50;4.30;;;;;;;22.42;89.43;101595.75;5189353;28;20377;-85
2022/06/03 08:34:17;;;;;;;5.72;5.25;;;;;;;22.36;90.41;101588.78;5188998;28;20021;-84
2022/06/03 08:36:48;;;;;;;4.07;3.78;;;;;;;22.58;89.60;101597.75;5189190;28;20023;-85
2022/06/03 08:39:25;;;;;;;4.88;4.10;;;;;;;22.78;89.38;101587.31;5188470;28;20022;-83
2022/06/03 08:41:56;;;;;;;4.28;4.03;;;;;;;23.21;86.07;101595.63;5187063;28;20034;-82
2022/06/03 08:44:42;;;;;;;4.60;4.30;;;;;;;23.16;83.74;101601.28;5186753;28;20038;-83
2022/06/03 08:47:26;;;;;;;3.78;3.47;;;;;;;23.18;84.60;101601.78;5186982;28;20468;-84
2022/06/03 08:50:33;;;;;;;4.72;4.43;;;;;;;23.39;83.60;101605.53;5188159;28;20026;-84
2022/06/03 08:53:10;;;;;;;3.03;2.88;;;;;;;23.37;80.96;101598.75;5186865;28;20476;-84
2022/06/03 08:55:52;;;;;;;4.13;3.50;;;;;;;23.40;81.79;101601.63;5187779;28;20030;-85
2022/06/03 08:58:57;;;;;;;4.07;3.75;;;;;;;23.30;80.07;101604.72;5188539;28;20400;-82
2022/06/03 09:01:48;;;;;;;4.70;4.22;;;;;;;23.23;82.41;101607.16;5191077;28;20033;-83
2022/06/03 09:04:22;;;;;;;5.28;2.95;;;;;;;23.37;79.87;101605.06;5192296;28;20029;-83
2022/06/03 09:07:29;;;;;;;4.30;3.90;;;;;;;23.47;77.98;101601.16;5190952;28;20044;-85
2022/06/03 09:10:11;;;;;;;10.63;4.22;;;;;;;23.53;77.84;101595.19;5193377;28;20484;-85
2022/06/03 09:13:07;;;;;;;4.88;3.97;;;;;;;23.56;76.78;101605.56;5188973;28;20076;-86
2022/06/03 09:15:44;;;;;;;3.78;3.58;;;;;;;23.13;76.17;101590.91;5182987;28;20049;-85
2022/06/03 09:18:41;;;;;;;3.95;3.75;;;;;;;23.10;74.52;101608.13;5186419;28;20084;-86
2022/06/03 09:21:22;;;;;;;3.63;3.42;;;;;;;23.09;74.20;101603.75;5184810;28;20030;-86
2022/06/03 09:24:02;;;;;;;4.03;3.30;;;;;;;23.10;74.87;101591.59;5186890;28;20026;-86
2022/06/03 09:26:38;;;;;;;2.38;2.28;;;;;;;22.86;72.20;101540.50;5186562;28;20105;-86
2022/06/03 09:29:12;;;;;;;3.33;3.13;;;;;;;23.52;73.56;101610.09;5186309;28;20070;-86
2022/06/03 09:31:58;;;;;;;2.33;2.22;;;;;;;23.73;72.39;101593.69;5184825;28;20033;-86
2022/06/03 09:34:40;;;;;;;3.05;2.85;;;;;;;23.95;70.79;101600.16;5185308;28;20037;-87
2022/06/03 09:37:14;;;;;;;6.05;2.50;;;;;;;23.78;70.19;101590.75;5188447;28;20026;-86
2022/06/03 09:39:47;;;;;;;3.95;3.38;;;;;;;23.61;70.76;101588.03;5189294;28;20018;-86
2022/06/03 09:42:21;;;;;;;4.13;2.15;;;;;;;23.76;70.90;101586.72;5188093;28;20021;-86
2022/06/03 09:44:53;;;;;;;3.90;3.70;;;;;;;24.06;69.38;101585.66;5188244;28;20029;-86
2022/06/03 09:47:24;;;;;;;4.10;2.60;;;;;;;23.80;68.60;101527.81;5190142;28;20028;-86
2022/06/03 09:49:54;;;;;;;3.45;2.53;;;;;;;23.80;68.82;101577.47;5190176;28;20500;-85
2022/06/03 09:52:27;;;;;;;3.42;3.05;;;;;;;24.04;68.03;101576.91;5189944;28;20085;-86
2022/06/03 09:55:05;;;;;;;2.28;2.08;;;;;;;23.90;66.09;101532.97;5189458;28;20028;-85
2022/06/03 09:57:43;;;;;;;2.85;2.63;;;;;;;24.06;66.30;101580.13;5189395;28;20124;-86
2022/06/03 10:00:17;;;;;;;3.13;2.95;;;;;;;24.11;66.65;101588.25;5188243;28;20404;-85
2022/06/03 10:02:48;;;;;;;2.10;2.00;;;;;;;24.19;64.83;101581.09;5189959;28;20471;-86
2022/06/03 10:05:20;;;;;;;2.08;1.98;;;;;;;24.32;65.53;101585.59;5192655;28;20026;-85
2022/06/03 10:07:58;;;;;;;9.88;2.63;;;;;;;24.26;66.46;101528.13;5195082;28;20057;-86
2022/06/03 10:13:18;;;;;;;1.88;1.83;;;;;;;24.57;61.57;101559.00;5189589;28;20033;-87
2022/06/03 10:15:56;;;;;;;5.60;3.03;;;;;;;24.35;62.75;101504.06;5190402;28;20468;-87
2022/06/03 10:18:32;;;;;;;2.05;1.95;;;;;;;24.93;61.50;101563.97;5188212;28;20565;-86
2022/06/03 10:21:06;;;;;;;5.57;3.08;;;;;;;25.12;62.95;101561.56;5188846;28;20025;-85
2022/06/03 10:23:53;;;;;;;3.85;2.03;;;;;;;25.26;62.01;101558.53;5187726;28;20045;-86
2022/06/03 10:26:43;;;;;;;2.45;2.35;;;;;;;25.01;61.56;101471.94;5188676;28;20021;-87
2022/06/03 10:29:17;;;;;;;2.50;2.30;;;;;;;25.27;60.17;101564.88;5194351;28;20036;-88
2022/06/03 10:31:50;;;;;;;3.17;2.83;;;;;;;24.73;60.28;101513.09;5189762;28;20022;-87
2022/06/03 10:34:23;;;;;;;2.03;1.92;;;;;;;25.10;59.91;101527.94;5188920;28;20030;-88
2022/06/03 10:36:57;;;;;;;3.15;2.55;;;;;;;25.16;60.28;101550.63;5189304;28;20065;-87
2022/06/03 10:39:28;;;;;;;2.15;2.05;;;;;;;25.36;59.19;101522.19;5195723;28;20030;-87
2022/06/03 10:41:59;;;;;;;1.25;1.25;;;;;;;25.51;56.13;101540.09;5190835;28;20018;-87
2022/06/03 10:44:33;;;;;;;1.80;1.80;;;;;;;25.59;56.32;101544.72;5188259;28;20032;-88
2022/06/03 10:47:17;;;;;;;3.33;1.92;;;;;;;25.13;56.19;101474.72;5187672;28;20026;-85
2022/06/03 10:49:57;;;;;;;1.80;1.70;;;;;;;25.79;55.52;101543.88;5189242;28;20030;-86
2022/06/03 11:01:19;;;;;;;2.38;2.28;;;;;;;24.90;56.34;101540.56;5188564;28;20030;-85
2022/06/03 11:03:52;;;;;;;6.53;2.50;;;;;;;25.12;56.11;101549.72;5186207;28;20030;-85
2022/06/03 11:06:26;;;;;;;2.70;2.33;;;;;;;25.09;54.94;101495.94;5187078;28;20037;-86
2022/06/03 11:09:00;;;;;;;2.38;2.28;;;;;;;25.29;54.06;101499.81;5187942;28;20026;-87
2022/06/03 11:11:58;;;;;;;1.92;1.83;;;;;;;25.67;54.38;101535.56;5188327;28;20041;-87
2022/06/03 11:14:39;;;;;;;2.55;2.30;;;;;;;25.86;53.48;101543.31;5186155;28;20041;-87
2022/06/03 11:17:17;;;;;;;2.45;2.22;;;;;;;25.73;53.41;101536.94;5189238;28;20524;-87
2022/06/03 11:19:49;;;;;;;1.83;1.73;;;;;;;25.22;54.04;101478.22;5188082;28;20036;-87
2022/06/03 11:22:19;;;;;;;2.05;1.83;;;;;;;25.67;53.45;101538.34;5187847;28;20054;-87
2022/06/03 11:25:05;;;;;;;3.63;2.88;;;;;;;25.90;54.19;101547.84;5187973;28;20428;-85
2022/06/03 11:27:44;;;;;;;8.38;4.20;;;;;;;26.04;53.86;101550.25;5187462;28;20030;-89
2022/06/03 11:30:24;;;;;;;3.00;2.90;;;;;;;25.94;53.25;101545.19;5187146;28;20030;-89
2022/06/03 11:33:01;;;;;;;2.95;2.80;;;;;;;25.60;51.84;101499.31;5188393;28;20408;-88
2022/06/03 11:36:00;;;;;;;2.22;2.13;;;;;;;25.94;52.69;101545.19;5188429;28;20022;-87
2022/06/03 11:38:55;;;;;;;1.95;1.83;;;;;;;25.40;52.78;101478.88;5186696;28;20091;-88
2022/06/03 11:41:42;;;;;;;5.93;2.17;;;;;;;25.89;53.21;101545.41;5187073;28;20104;-88
2022/06/03 11:44:34;;;;;;;2.35;2.25;;;;;;;25.63;52.39;101520.81;5185862;28;20029;-87
2022/06/03 11:47:15;;;;;;;4.53;2.38;;;;;;;25.56;51.95;101537.91;5187414;28;20022;-88
2022/06/03 11:49:46;;;;;;;4.15;2.72;;;;;;;25.71;52.55;101519.88;5202560;28;20029;-85
2022/06/03 11:52:17;;;;;;;2.28;2.17;;;;;;;25.60;50.74;101507.63;5186539;28;20018;-84
2022/06/03 11:54:51;;;;;;;2.95;2.75;;;;;;;25.96;52.90;101540.13;5185055;28;20399;-84
2022/06/03 11:57:23;;;;;;;2.45;2.20;;;;;;;25.78;52.63;101502.72;5185544;28;20037;-87
2022/06/03 12:00:09;;;;;;;2.75;2.65;;;;;;;25.83;53.19;101508.84;5203416;28;20034;-88
2022/06/03 12:03:00;;;;;;;4.35;2.35;;;;;;;26.10;51.51;101550.84;5187490;28;20026;-88
2022/06/03 12:05:41;;;;;;;2.85;2.65;;;;;;;25.93;52.30;101496.53;5186801;28;20030;-88
2022/06/03 12:08:29;;;;;;;2.78;2.58;;;;;;;26.21;51.84;101500.22;5187816;28;20026;-87
2022/06/03 12:13:14;;;;;;;2.65;2.45;;;;;;;26.32;52.11;101511.66;5188528;28;20443;-86
2022/06/03 12:14:29;;;;;;;3.92;3.63;;;;;;;26.30;50.89;101524.19;5187050;28;20092;-88
2022/06/03 12:17:22;;;;;;;3.75;3.55;;;;;;;26.29;50.89;101530.91;5185366;28;20547;-87
2022/06/03 12:19:54;;;;;;;4.82;3.42;;;;;;;26.22;51.24;101526.75;5216306;22;20046;-61
2022/06/03 12:22:30;;;;;;;3.63;2.72;;;;;;;26.60;51.31;101520.06;5203356;28;20418;-60
2022/06/03 12:25:06;;;;;;;2.60;2.50;;;;;;;26.73;51.80;101512.53;5203267;28;20035;-59
2022/06/03 12:27:39;;;;;;;2.97;2.63;;;;;;;26.78;51.58;101499.25;5203685;28;20030;-60
2022/06/03 12:30:18;;;;;;;4.57;4.18;;;;;;;26.77;51.13;101517.03;5203476;28;20052;-60
2022/06/03 12:32:55;;;;;;;2.92;2.75;;;;;;;26.72;51.30;101522.81;5203512;28;20029;-59
2022/06/03 12:35:48;;;;;;;3.33;3.10;;;;;;;26.42;51.12;101519.50;5202708;28;20116;-59
2022/06/03 12:38:22;;;;;;;9.02;3.38;;;;;;;26.48;51.05;101507.03;5202989;28;20101;-61
2022/06/03 12:40:56;;;;;;;4.00;3.80;;;;;;;26.16;52.03;101511.53;5203416;28;20022;-60
2022/06/03 12:43:30;;;;;;;3.83;3.63;;;;;;;26.14;51.82;101508.28;5203356;28;20037;-60
2022/06/03 12:46:09;;;;;;;3.47;3.28;;;;;;;26.53;51.54;101498.50;5205513;28;20033;-60
2022/06/03 12:48:51;;;;;;;3.30;3.10;;;;;;;26.91;51.20;101508.31;5205293;28;20207;-60
2022/06/03 12:51:31;;;;;;;3.97;3.67;;;;;;;26.91;51.59;101500.81;5204180;28;20051;-64
2022/06/03 12:54:14;;;;;;;4.32;3.92;;;;;;;26.64;50.89;101504.34;5203958;28;20041;-60
2022/06/03 12:56:54;;;;;;;4.10;3.72;;;;;;;26.58;49.76;101506.56;5204364;28;20025;-60
2022/06/03 12:59:59;;;;;;;5.13;2.90;;;;;;;26.55;50.16;101506.47;5204191;28;20025;-60
2022/06/03 13:02:35;;;;;;;3.28;3.15;;;;;;;26.22;50.35;101510.16;5205095;28;20029;-60
2022/06/03 13:05:46;;;;;;;3.88;3.58;;;;;;;26.29;50.75;101504.00;5204063;28;20079;-60
2022/06/03 13:08:28;;;;;;;5.18;3.15;;;;;;;26.59;50.72;101501.81;5166229;28;20034;-60
2022/06/03 13:11:19;;;;;;;3.15;2.80;;;;;;;26.68;50.00;101504.47;5183980;28;20038;-60
2022/06/03 13:13:56;;;;;;;3.20;3.00;;;;;;;26.72;50.35;101508.97;5203012;28;20041;-60
2022/06/03 13:16:31;;;;;;;3.55;3.35;;;;;;;26.96;50.26;101501.75;5208240;28;20155;-60
2022/06/03 13:19:14;;;;;;;3.42;3.15;;;;;;;27.66;50.28;101497.41;5207964;28;20130;-60
2022/06/03 13:21:56;;;;;;;2.95;2.85;;;;;;;28.19;49.00;101492.38;5209503;28;20026;-60
2022/06/03 13:24:34;;;;;;;3.38;2.92;;;;;;;28.47;48.76;101483.94;5207955;28;20358;-60
2022/06/03 13:27:08;;;;;;;3.93;3.37;;;;;;;28.16;47.91;101496.69;5208127;28;20093;-59
2022/06/03 13:29:52;;;;;;;3.80;3.60;;;;;;;28.21;48.63;101496.44;5207402;28;20288;-63
2022/06/03 13:32:34;;;;;;;2.63;2.53;;;;;;;27.90;48.57;101494.47;5207875;28;20084;-60
2022/06/03 13:35:21;;;;;;;5.40;4.40;;;;;;;28.00;47.91;101495.91;5208077;28;20025;-61
2022/06/03 13:38:11;;;;;;;4.18;3.80;;;;;;;28.37;47.77;101490.06;5201846;28;20105;-62
2022/06/03 13:42:57;;;;;;;5.82;2.88;;;;;;;29.10;47.88;101495.66;5209732;28;20029;-63
2022/06/03 13:43:32;;;;;;;5.78;4.32;;;;;;;30.26;45.24;101495.38;5210335;28;20091;-62
2022/06/03 13:46:07;;;;;;;7.85;3.88;;;;;;;30.15;46.31;101492.41;5209629;28;20029;-61
2022/06/03 13:48:41;;;;;;;2.15;2.05;;;;;;;31.06;45.90;101487.72;5209081;28;20029;-62
2022/06/03 13:51:30;;;;;;;3.03;2.60;;;;;;;30.82;44.38;101489.84;5207979;28;20177;-61
2022/06/03 13:54:16;;;;;;;5.20;3.35;;;;;;;31.40;43.65;101491.31;5207851;28;20470;-62
2022/06/03 13:57:02;;;;;;;4.70;4.40;;;;;;;30.53;43.92;101504.53;5224521;28;20390;-64
2022/06/03 13:59:40;;;;;;;5.13;4.72;;;;;;;30.44;44.82;101495.63;5207397;28;20057;-61
2022/06/03 14:02:22;;;;;;;4.07;3.70;;;;;;;30.46;43.79;101510.00;5224181;28;20040;-61
2022/06/03 14:05:01;;;;;;;3.58;3.38;;;;;;;29.14;43.96;101509.63;5207542;28;20124;-62
2022/06/03 14:07:39;;;;;;;2.03;1.92;;;;;;;28.40;45.63;101508.78;5209513;28;20373;-61
2022/06/03 14:10:19;;;;;;;3.08;2.97;;;;;;;28.06;46.74;101521.41;5224456;28;20060;-61
2022/06/03 14:13:28;;;;;;;3.25;3.05;;;;;;;27.77;46.92;101517.91;5208464;28;20041;-61